Flight Track Log - Related Links

Times and Time Zones

All times are in EDT time to prevent confusion due to time zone crossing. See the CSJ405 flight status page for this flight to view local times or setup timezone preferences in your user account.

Time Position Orientation Groundspeed Altitude Reporting Facility
EDT Latitude Longitude Course Direction KTS MPH feet Rate Location/Type
Fri 11:32:48 PM 43.1500 -79.9333 209° Southwest 90 104 1,200  Level Toronto Center
Fri 11:33:48 PM 43.1333 -79.9500 216° Southwest 100 115 2,100 1,000 Climbing Toronto Center
Fri 11:34:48 PM 43.1167 -79.9833 236° Southwest 90 104 3,200 1,000 Climbing Toronto Center
Fri 11:35:48 PM 43.1000 -80.0000 216° Southwest 90 104 4,100 950 Climbing Toronto Center
Fri 11:36:48 PM 43.0833 -80.0000 180° South 100 115 5,100 1,000 Climbing Toronto Center
Fri 11:37:48 PM 43.0500 -80.0167 200° South 100 115 6,100 950 Climbing Toronto Center
Fri 11:38:00 PM 42.9912 -80.0483 209° Southwest  Level FlightAware Approximate
Fri 11:38:48 PM 43.0333 -80.0500 236° Southwest 110 127 7,000  Level Toronto Center
Fri 11:39:48 PM 43.0000 -80.0667 200° South 110 127 7,900 950 Climbing Toronto Center
Fri 11:40:48 PM 42.9667 -80.0833 200° South 110 127 8,900 900 Climbing Toronto Center
Fri 11:41:48 PM 42.9333 -80.1167 216° Southwest 120 138 9,700 550 Climbing Toronto Center
Fri 11:42:48 PM 42.9000 -80.1333 200° South 140 161 10,000 150 Climbing Toronto Center
Fri 11:43:48 PM 42.8667 -80.1500 200° South 160 184 10,000  Level Toronto Center
Fri 11:44:48 PM 42.8167 -80.2000 216° Southwest 170 196 10,000 -50 Level Toronto Center
Fri 11:45:48 PM 42.7833 -80.2167 200° South 180 207 9,900  Descending Toronto Center
Fri 11:46:48 PM 42.7333 -80.2500 206° Southwest 170 196 10,000 50 Climbing Toronto Center
Fri 11:47:48 PM 42.6833 -80.2667 194° South 170 196 10,000  Level Toronto Center
Fri 11:48:48 PM 42.6500 -80.3167 228° Southwest 170 196 10,000  Level Toronto Center
Fri 11:49:48 PM 42.6000 -80.3333 194° South 170 196 10,000  Level Toronto Center
Fri 11:50:48 PM 42.5667 -80.3500 200° South 170 196 10,000  Level Toronto Center
Fri 11:51:48 PM 42.5333 -80.3833 216° Southwest 170 196 10,000  Level Toronto Center
Fri 11:52:48 PM 42.4833 -80.4000 194° South 170 196 10,000  Level Toronto Center
Fri 11:53:48 PM 42.4500 -80.4500 228° Southwest 170 196 10,000  Level Toronto Center
Fri 11:54:48 PM 42.4000 -80.4667 194° South 170 196 10,000  Level Toronto Center
Fri 11:55:48 PM 42.3667 -80.4833 200° South 170 196 10,000  Level Toronto Center
Fri 11:56:48 PM 42.3167 -80.5167 206° Southwest 170 196 10,000  Level Toronto Center
Fri 11:57:48 PM 42.2833 -80.5500 216° Southwest 170 196 10,000  Level Toronto Center
Fri 11:58:48 PM 42.2333 -80.5833 206° Southwest 170 196 10,000  Level Toronto Center
Fri 11:59:48 PM 42.2000 -80.6000 200° South 170 196 10,000  Level Toronto Center
Sat 12:00:48 AM 42.1500 -80.6500 217° Southwest 170 196 10,000  Level Toronto Center
Sat 12:01:48 AM 42.1167 -80.6667 200° South 170 196 10,000  Level Toronto Center
Sat 12:02:48 AM 42.0667 -80.6833 194° South 170 196 10,000  Level Toronto Center
Sat 12:03:48 AM 42.0167 -80.7167 206° Southwest 170 196 10,000  Level Toronto Center
Sat 12:04:48 AM 41.9833 -80.7500 217° Southwest 170 196 10,000  Level Toronto Center
Sat 12:05:59 AM 41.9347 -80.7953 215° Southwest 178 205 10,000  Level Cleveland Center
Sat 12:06:59 AM 41.8908 -80.8258 207° Southwest 178 205 10,000  Level Cleveland Center
Sat 12:07:59 AM 41.8492 -80.8508 204° Southwest 178 205 10,000  Level Cleveland Center
Sat 12:08:59 AM 41.8075 -80.8783 206° Southwest 178 205 10,000  Level Cleveland Center
Sat 12:09:59 AM 41.7636 -80.9089 207° Southwest 178 205 10,000  Level Cleveland Center
Sat 12:10:59 AM 41.7239 -80.9308 202° Southwest 178 205 10,000  Level Cleveland Center
Sat 12:12:00 AM 41.6822 -80.9583 206° Southwest 178 205 10,000  Level Cleveland Center
Sat 12:12:59 AM 41.6403 -80.9861 206° Southwest 178 205 10,000  Level Cleveland Center
Sat 12:13:59 AM 41.5986 -81.0108 204° Southwest 178 205 10,000  Level Cleveland Center
Sat 12:14:59 AM 41.5567 -81.0408 208° Southwest 178 205 10,000  Level Cleveland Center
Sat 12:15:59 AM 41.5150 -81.0656 204° Southwest 178 205 10,000 -100 Level Cleveland Center
Sat 12:16:59 AM 41.4689 -81.0986 208° Southwest 178 205 9,800 -300 Descending Cleveland Center
Sat 12:17:59 AM 41.4231 -81.1231 202° Southwest 178 205 9,400 -446 Descending Cleveland Center
Sat 12:19:00 AM 41.3792 -81.1503 205° Southwest 178 205 8,900 -450 Descending Cleveland Center
Sat 12:19:59 AM 41.3331 -81.1831 208° Southwest 178 205 8,500 -454 Descending Cleveland Center
Sat 12:20:59 AM 41.2869 -81.2103 204° Southwest 178 205 8,000 -500 Descending Cleveland Center
Sat 12:21:59 AM 41.2431 -81.2375 205° Southwest 178 205 7,500 -500 Descending Cleveland Center
Sat 12:22:59 AM 41.1969 -81.2675 206° Southwest 178 205 7,000 -600 Descending Cleveland Center
Sat 12:23:59 AM 41.1553 -81.2947 206° Southwest 178 205 6,300 -850 Descending Cleveland Center
Sat 12:24:59 AM 41.1133 -81.3300 212° Southwest 183 211 5,300 -1,000 Descending Cleveland Center
Sat 12:25:59 AM 41.0692 -81.3625 209° Southwest 183 211 4,300 -900 Descending Cleveland Center
Sat 12:26:59 AM 41.0294 -81.3922 209° Southwest 178 205 3,500 -850 Descending Cleveland Center
Sat 12:27:59 AM 40.9917 -81.4167 206° Southwest 170 196 2,600 -850 Descending Cleveland Center
Sat 12:28:59 AM 40.9458 -81.4408 202° Southwest 165 190 1,800 -550 Descending Cleveland Center
Sat 12:29:59 AM 40.9122 -81.4569 200° South 146 168 1,500 -300 Descending Cleveland Center
Sat 12:31:00 AM 40.9151 -81.4436 North  Level Estimated

Login

Don't have an account? Register now (free) for customized features, flight alerts, and more!